Impacts METAR Board INFO
IDs:

KDEN - Denver Intl, CO, US

Updated at: 1458 UTC 13 Dec 2017
Potential Impact None Slight Moderate High
Time13/02Z 13/03Z 13/04Z 13/05Z 13/06Z 13/07Z 13/08Z 13/09Z 13/10Z 13/11Z 13/12Z 13/13Z 13/14Z
VIS10 10 10 10 10 10 10 10 10 10 10 10 10
CIG-- -- -- -- -- -- -- 220 220 220 -- 120 120
CoverFEWFEWCLRCLRCLRCLRSCTBKNBKNBKNSCTBKNBKN
FltCatVFRVFRVFRVFRVFRVFRVFRVFRVFRVFRVFRVFRVFR
WX--------------------------
WDir2802402202302302302402602508090110100
WSpd8 8 10 10 11 10 11 12 7 4 9 7 7
WGst-- -- -- -- -- -- -- -- -- -- -- -- --
Raw hourly METARs
KDEN 130153Z 28008KT 10SM FEW250 11/M12 A3015 RMK AO2 SLP191 T01061117
KDEN 130253Z 24008KT 10SM FEW250 08/M12 A3014 RMK AO2 SLP185 T00831122 58005
KDEN 130353Z 22010KT 10SM CLR 07/M12 A3011 RMK AO2 SLP176 T00671117
KDEN 130453Z 23010KT 10SM CLR 06/M12 A3010 RMK AO2 SLP161 T00611117
KDEN 130553Z 23011KT 10SM CLR 06/M13 A3009 RMK AO2 SLP151 T00611128 10144 20056 56014
KDEN 130653Z 23010KT 10SM CLR 04/M13 A3007 RMK AO2 SLP143 T00391128 402061017
KDEN 130753Z 24011KT 10SM SCT220 05/M13 A3005 RMK AO2 SLP135 T00501133
KDEN 130853Z 26012KT 10SM BKN220 10/M16 A3005 RMK AO2 SLP122 T01001156 56011
KDEN 130953Z 25007KT 10SM BKN220 04/M15 A3005 RMK AO2 SLP134 T00441150
KDEN 131053Z 08004KT 10SM BKN220 01/M14 A3007 RMK AO2 SLP151 T00111144
KDEN 131153Z 09009KT 10SM SCT220 02/M14 A3011 RMK AO2 SLP169 T00221139 10106 21022 53016
KDEN 131253Z 11007KT 10SM BKN120 BKN220 02/M14 A3013 RMK AO2 SLP183 T00221144
KDEN 131353Z 10007KT 10SM BKN120 BKN220 03/M14 A3014 RMK AO2 SLP187 T00331139